createdAt,value
2023-11-30T00:00:29.925Z,25.38
2023-11-30T00:01:33.194Z,24.23
2023-11-30T00:02:35.373Z,23.95
2023-11-30T00:03:38.600Z,24.08
2023-11-30T00:04:40.906Z,23.80
2023-11-30T00:05:44.180Z,24.65
2023-11-30T00:06:46.277Z,23.58
2023-11-30T00:07:48.404Z,23.90
2023-11-30T00:08:51.938Z,25.40
2023-11-30T00:09:54.059Z,23.38
2023-11-30T00:10:58.457Z,22.83
2023-11-30T00:12:00.737Z,23.98
2023-11-30T00:13:03.032Z,23.90
2023-11-30T00:14:06.396Z,23.73
2023-11-30T00:15:09.388Z,23.77
2023-11-30T00:16:12.909Z,24.77
2023-11-30T00:17:15.216Z,24.00
2023-11-30T00:18:17.455Z,23.70
2023-11-30T00:19:20.742Z,24.65
2023-11-30T00:20:22.885Z,23.08
2023-11-30T00:21:26.110Z,24.23
2023-11-30T00:22:28.268Z,23.52
2023-11-30T00:23:33.368Z,24.33
2023-11-30T00:24:35.612Z,25.05
2023-11-30T00:25:39.001Z,25.67
2023-11-30T00:26:43.720Z,24.20
2023-11-30T00:27:47.185Z,23.35
2023-11-30T00:28:49.294Z,23.05
2023-11-30T00:29:52.558Z,23.55
2023-11-30T00:30:54.702Z,24.02
2023-11-30T00:31:56.759Z,24.55
2023-11-30T00:32:59.997Z,26.30
2023-11-30T00:34:02.422Z,24.63
2023-11-30T00:35:06.024Z,25.42
2023-11-30T00:36:09.160Z,26.90
2023-11-30T00:37:12.605Z,25.30
2023-11-30T00:38:14.688Z,25.67
2023-11-30T00:39:17.209Z,27.30
2023-11-30T00:40:20.504Z,26.58
2023-11-30T00:41:22.839Z,25.83
2023-11-30T00:42:27.732Z,24.83
2023-11-30T00:43:29.942Z,22.88
2023-11-30T00:44:33.140Z,24.63
2023-11-30T00:45:35.400Z,24.05
2023-11-30T00:46:38.913Z,23.58
2023-11-30T00:47:42.062Z,24.38
2023-11-30T00:48:44.348Z,23.10
2023-11-30T00:49:47.610Z,23.90
2023-11-30T00:50:49.736Z,22.13
2023-11-30T00:51:51.820Z,21.50
2023-11-30T00:52:54.861Z,22.20
2023-11-30T00:53:57.153Z,21.65
2023-11-30T00:55:00.294Z,21.33
2023-11-30T00:56:02.507Z,23.48
2023-11-30T00:57:06.204Z,21.80
2023-11-30T00:58:10.240Z,21.73
2023-11-30T00:59:12.389Z,26.42
2023-11-30T01:00:16.238Z,26.15
2023-11-30T01:01:18.518Z,26.45
2023-11-30T01:02:21.625Z,26.73
2023-11-30T01:03:23.982Z,26.73
2023-11-30T01:04:27.190Z,27.33
2023-11-30T01:05:29.400Z,29.98
2023-11-30T01:06:32.707Z,29.42
2023-11-30T01:07:34.819Z,28.80
2023-11-30T01:08:38.834Z,27.67
2023-11-30T01:09:40.894Z,27.92
2023-11-30T01:10:45.172Z,28.88
2023-11-30T01:11:48.389Z,27.75
2023-11-30T01:12:51.886Z,28.10
2023-11-30T01:13:55.345Z,25.50
2023-11-30T01:14:58.731Z,25.95
2023-11-30T01:16:00.953Z,26.40
2023-11-30T01:17:04.149Z,26.17
2023-11-30T01:18:06.442Z,25.23
2023-11-30T01:19:08.941Z,24.23
2023-11-30T01:20:12.967Z,25.77
2023-11-30T01:21:15.172Z,22.05
2023-11-30T01:22:19.257Z,22.02
2023-11-30T01:23:22.099Z,20.48
2023-11-30T01:24:25.628Z,20.83
2023-11-30T01:25:27.820Z,19.52
2023-11-30T01:26:31.056Z,20.08
2023-11-30T01:27:33.556Z,19.17
2023-11-30T01:28:36.732Z,20.33
2023-11-30T01:29:40.201Z,20.30
2023-11-30T01:30:42.295Z,19.33
2023-11-30T01:31:45.717Z,18.77
2023-11-30T01:32:48.367Z,19.17
2023-11-30T01:33:51.842Z,19.20
2023-11-30T01:34:54.780Z,18.95
2023-11-30T01:35:57.176Z,18.27
2023-11-30T01:37:00.377Z,18.77
2023-11-30T01:38:03.290Z,20.13
2023-11-30T01:39:06.422Z,19.63
2023-11-30T01:40:10.823Z,18.73
2023-11-30T01:41:14.076Z,19.08
2023-11-30T01:42:16.737Z,17.58
2023-11-30T01:43:20.875Z,19.85
2023-11-30T01:44:22.950Z,19.30
2023-11-30T01:45:27.509Z,18.52
2023-11-30T01:46:29.970Z,18.98
2023-11-30T01:47:33.348Z,17.80
2023-11-30T01:48:35.735Z,18.35
2023-11-30T01:49:39.023Z,18.02
2023-11-30T01:50:42.594Z,19.42
2023-11-30T01:51:45.757Z,18.17
2023-11-30T01:52:48.358Z,19.00
2023-11-30T01:53:51.545Z,18.27
2023-11-30T01:54:54.594Z,18.77
2023-11-30T01:55:57.934Z,20.38
2023-11-30T01:57:00.284Z,19.38
2023-11-30T01:58:04.736Z,19.95
2023-11-30T01:59:08.482Z,18.58
2023-11-30T02:00:12.759Z,20.15
2023-11-30T02:01:17.016Z,17.52
2023-11-30T02:02:20.762Z,18.30
2023-11-30T02:03:26.220Z,18.52
2023-11-30T02:04:31.191Z,18.92
2023-11-30T02:05:33.626Z,18.25
2023-11-30T02:06:36.753Z,19.33
2023-11-30T02:07:39.026Z,19.02
2023-11-30T02:08:42.159Z,19.38
2023-11-30T02:09:44.259Z,20.65
2023-11-30T02:10:47.360Z,19.85
2023-11-30T02:11:51.450Z,20.20
2023-11-30T02:12:53.640Z,18.98
2023-11-30T02:13:55.837Z,21.08
2023-11-30T02:15:00.369Z,17.63
2023-11-30T02:16:02.891Z,19.50
2023-11-30T02:17:07.668Z,18.85
2023-11-30T02:18:09.877Z,19.90
2023-11-30T02:19:13.074Z,18.30
2023-11-30T02:20:15.371Z,16.92
2023-11-30T02:21:19.414Z,16.77
2023-11-30T02:22:22.970Z,16.08
2023-11-30T02:23:26.061Z,17.27
2023-11-30T02:24:28.377Z,15.75
2023-11-30T02:25:31.465Z,16.00
2023-11-30T02:26:33.686Z,15.18
2023-11-30T02:27:36.793Z,14.63
2023-11-30T02:28:38.876Z,14.18
2023-11-30T02:29:42.117Z,15.23
2023-11-30T02:30:46.775Z,15.20
2023-11-30T02:31:49.931Z,16.05
2023-11-30T02:32:52.352Z,20.60
2023-11-30T02:33:55.825Z,18.60
2023-11-30T02:34:57.996Z,16.17
2023-11-30T02:36:00.090Z,14.93
2023-11-30T02:37:03.263Z,15.90
2023-11-30T02:38:06.696Z,15.00
2023-11-30T02:39:10.180Z,18.33
2023-11-30T02:40:13.051Z,18.52
2023-11-30T02:41:17.979Z,17.67
2023-11-30T02:42:20.425Z,18.58
2023-11-30T02:43:23.583Z,20.45
2023-11-30T02:44:25.648Z,21.80
2023-11-30T02:45:29.088Z,20.23
2023-11-30T02:46:31.267Z,19.13
2023-11-30T02:47:34.400Z,22.27
2023-11-30T02:48:37.630Z,22.27
2023-11-30T02:49:40.809Z,22.50
2023-11-30T02:50:42.934Z,20.88
2023-11-30T02:51:46.093Z,21.25
2023-11-30T02:52:49.337Z,19.45
2023-11-30T02:53:53.849Z,21.10
2023-11-30T02:54:55.913Z,20.33
2023-11-30T02:56:01.056Z,21.95
2023-11-30T02:57:04.237Z,20.15
2023-11-30T02:58:07.313Z,20.50
2023-11-30T02:59:09.858Z,19.65
2023-11-30T03:00:12.651Z,19.58
2023-11-30T03:01:15.824Z,19.40
2023-11-30T03:02:18.063Z,19.20
2023-11-30T03:03:22.170Z,19.50
2023-11-30T03:04:24.287Z,18.77
2023-11-30T03:05:27.542Z,19.45
2023-11-30T03:06:29.688Z,18.55
2023-11-30T03:07:32.987Z,19.92
2023-11-30T03:08:35.107Z,19.65
2023-11-30T03:09:38.532Z,18.83
2023-11-30T03:10:41.661Z,19.80
2023-11-30T03:11:43.809Z,18.35
2023-11-30T03:12:46.928Z,19.48
2023-11-30T03:13:49.059Z,21.58
2023-11-30T03:14:52.283Z,19.65
2023-11-30T03:15:54.468Z,22.20
2023-11-30T03:16:58.657Z,23.08
2023-11-30T03:18:00.878Z,24.40
2023-11-30T03:19:17.245Z,23.20
2023-11-30T03:20:19.911Z,23.05
2023-11-30T03:21:23.115Z,23.60
2023-11-30T03:22:25.940Z,23.17
2023-11-30T03:23:29.150Z,23.40
2023-11-30T03:24:31.258Z,23.40
2023-11-30T03:25:37.107Z,24.23
2023-11-30T03:26:39.421Z,23.60
2023-11-30T03:27:42.711Z,24.45
2023-11-30T03:28:45.104Z,25.77
2023-11-30T03:29:48.096Z,23.88
2023-11-30T03:30:50.236Z,24.33
2023-11-30T03:31:53.430Z,24.67
2023-11-30T03:32:55.967Z,23.15
2023-11-30T03:33:58.117Z,27.30
2023-11-30T03:35:01.532Z,24.92
2023-11-30T03:36:04.530Z,27.83
2023-11-30T03:37:07.780Z,34.53
2023-11-30T03:38:09.913Z,27.10
2023-11-30T03:39:13.108Z,29.88
2023-11-30T03:40:15.242Z,33.40
2023-11-30T03:41:19.630Z,35.47
2023-11-30T03:42:21.735Z,32.95
2023-11-30T03:43:24.966Z,31.02
2023-11-30T03:44:27.157Z,31.30
2023-11-30T03:45:35.581Z,30.75
2023-11-30T03:46:38.600Z,30.40
2023-11-30T03:47:41.690Z,29.65
2023-11-30T03:48:44.926Z,23.45
2023-11-30T03:49:48.068Z,22.95
2023-11-30T03:50:50.295Z,26.33
2023-11-30T03:51:53.455Z,23.60
2023-11-30T03:52:55.762Z,23.70
2023-11-30T03:53:58.939Z,28.17
2023-11-30T03:55:00.972Z,26.45
2023-11-30T03:56:04.183Z,25.60
2023-11-30T03:57:07.682Z,27.85
2023-11-30T03:58:10.772Z,28.65
2023-11-30T03:59:12.895Z,29.73
2023-11-30T04:00:17.670Z,26.73
2023-11-30T04:01:24.042Z,31.63
2023-11-30T04:02:27.292Z,28.50
2023-11-30T04:03:30.161Z,27.40
2023-11-30T04:04:33.666Z,27.48
2023-11-30T04:05:35.823Z,28.75
2023-11-30T04:06:39.027Z,32.47
2023-11-30T04:07:41.325Z,32.30
2023-11-30T04:08:44.441Z,29.70
2023-11-30T04:09:47.755Z,31.42
2023-11-30T04:10:50.908Z,28.30
2023-11-30T04:11:53.120Z,23.23
2023-11-30T04:12:57.606Z,24.05
2023-11-30T04:14:06.241Z,26.92
2023-11-30T04:15:10.530Z,27.55
2023-11-30T04:16:15.506Z,19.45
2023-11-30T04:17:18.530Z,20.48
2023-11-30T04:18:22.801Z,18.20
2023-11-30T04:19:25.942Z,17.38
2023-11-30T04:20:28.399Z,16.15
2023-11-30T04:21:32.076Z,16.77
2023-11-30T04:22:34.437Z,16.90
2023-11-30T04:23:36.498Z,16.45
2023-11-30T04:24:39.616Z,17.33
2023-11-30T04:25:41.766Z,16.92
2023-11-30T04:26:44.788Z,16.25
2023-11-30T04:27:46.909Z,14.95
2023-11-30T04:28:51.306Z,17.73
2023-11-30T04:29:53.432Z,18.00
2023-11-30T04:30:58.087Z,17.50
2023-11-30T04:32:00.300Z,16.65
2023-11-30T04:33:04.071Z,16.88
2023-11-30T04:34:07.556Z,16.58
2023-11-30T04:35:10.600Z,16.75
2023-11-30T04:36:15.626Z,17.50
2023-11-30T04:37:17.750Z,17.70
2023-11-30T04:38:21.229Z,17.40
2023-11-30T04:39:23.331Z,17.40
2023-11-30T04:40:26.454Z,16.85
2023-11-30T04:41:28.577Z,17.20
2023-11-30T04:42:34.771Z,17.10
2023-11-30T04:43:38.408Z,17.63
2023-11-30T04:44:44.020Z,17.10
2023-11-30T04:45:46.140Z,16.83
2023-11-30T04:46:49.347Z,16.63
2023-11-30T04:47:51.520Z,16.98
2023-11-30T04:48:54.648Z,17.10
2023-11-30T04:49:56.863Z,16.20
2023-11-30T04:50:59.903Z,15.82
2023-11-30T04:52:02.035Z,16.98
2023-11-30T04:53:05.234Z,16.45
2023-11-30T04:54:07.366Z,16.50
2023-11-30T04:55:11.051Z,17.13
2023-11-30T04:56:13.162Z,16.60
2023-11-30T04:57:16.668Z,17.40
2023-11-30T04:58:18.718Z,17.30
2023-11-30T04:59:21.782Z,15.13
2023-11-30T05:00:25.216Z,17.33
2023-11-30T05:01:28.287Z,17.40
2023-11-30T05:02:30.547Z,16.55
2023-11-30T05:03:34.055Z,17.35
2023-11-30T05:04:38.278Z,17.10
2023-11-30T05:05:41.629Z,16.55
2023-11-30T05:06:43.646Z,16.33
2023-11-30T05:07:46.738Z,18.67
2023-11-30T05:08:49.026Z,15.35
2023-11-30T05:09:52.133Z,16.52
2023-11-30T05:10:54.181Z,16.25
2023-11-30T05:11:57.354Z,16.40
2023-11-30T05:12:59.539Z,16.42
2023-11-30T15:54:31.159Z,31.30
2023-11-30T15:55:35.835Z,24.63
2023-11-30T15:56:38.207Z,27.92
2023-11-30T15:57:41.644Z,28.60
2023-11-30T15:58:43.837Z,32.05
2023-11-30T15:59:46.935Z,32.75
2023-11-30T16:00:49.217Z,27.38
2023-11-30T16:01:52.692Z,32.25
2023-11-30T16:02:54.924Z,30.80
2023-11-30T16:03:58.136Z,36.65
2023-11-30T16:05:00.522Z,36.95
2023-11-30T16:06:04.155Z,38.20
2023-11-30T16:07:06.316Z,32.67
2023-11-30T16:08:09.457Z,35.38
2023-11-30T16:09:13.289Z,34.55
2023-11-30T16:10:17.121Z,34.63
2023-11-30T16:11:20.809Z,30.73
2023-11-30T16:12:23.939Z,33.55
2023-11-30T16:13:26.831Z,31.08
2023-11-30T16:14:28.974Z,30.25
2023-11-30T16:15:32.132Z,27.80
2023-11-30T16:16:35.036Z,25.08
2023-11-30T16:17:38.329Z,25.60
2023-11-30T16:18:40.592Z,26.73
2023-11-30T16:19:43.712Z,25.23
2023-11-30T16:20:45.997Z,25.05
2023-11-30T16:21:52.179Z,23.65
2023-11-30T16:22:54.352Z,22.23
2023-11-30T16:23:57.551Z,22.17
2023-11-30T16:24:59.756Z,23.95
2023-11-30T16:26:02.982Z,26.23
2023-11-30T16:27:06.718Z,23.30
2023-11-30T16:28:10.389Z,21.20
2023-11-30T16:29:12.482Z,22.58
2023-11-30T16:30:15.631Z,21.60
2023-11-30T16:31:18.427Z,21.95
2023-11-30T16:32:20.517Z,24.63
2023-11-30T16:33:25.337Z,24.27
2023-11-30T16:34:32.134Z,26.45
2023-11-30T16:35:35.431Z,32.83
2023-11-30T16:36:37.785Z,24.30
2023-11-30T16:37:39.946Z,23.30
2023-11-30T16:38:43.038Z,24.85
2023-11-30T16:39:47.159Z,24.73
2023-11-30T16:40:50.303Z,23.45
2023-11-30T16:41:52.478Z,22.52
2023-11-30T16:42:57.371Z,23.98
2023-11-30T16:43:59.591Z,24.73
2023-11-30T16:45:03.374Z,25.25
2023-11-30T16:46:07.765Z,22.85
2023-11-30T16:47:13.611Z,20.75
2023-11-30T16:48:17.035Z,19.67
2023-11-30T16:49:20.188Z,21.13
2023-11-30T16:50:22.283Z,19.90
2023-11-30T16:51:25.501Z,21.58
2023-11-30T16:52:27.789Z,21.35
2023-11-30T16:53:30.927Z,21.67
2023-11-30T16:54:33.209Z,22.65
2023-11-30T16:55:36.532Z,22.02
2023-11-30T16:56:40.668Z,23.02
2023-11-30T16:57:43.984Z,23.13
2023-11-30T16:58:47.547Z,23.83
2023-11-30T16:59:50.681Z,23.27
2023-11-30T17:00:52.981Z,20.45
2023-11-30T17:01:56.224Z,19.42
2023-11-30T17:02:58.511Z,21.88
2023-11-30T17:04:02.002Z,19.45
2023-11-30T17:05:05.001Z,22.77
2023-11-30T17:06:08.551Z,21.90
2023-11-30T17:07:10.632Z,22.52
2023-11-30T17:08:13.923Z,22.83
2023-11-30T17:09:16.124Z,18.77
2023-11-30T17:10:19.259Z,19.58
2023-11-30T17:11:21.399Z,19.58
2023-11-30T17:12:24.541Z,18.90
2023-11-30T17:13:27.295Z,19.88
2023-11-30T17:14:31.823Z,17.70
2023-11-30T17:15:34.346Z,19.92
2023-11-30T17:16:39.863Z,19.92
2023-11-30T17:17:46.440Z,24.33
2023-11-30T17:18:49.601Z,23.45
2023-11-30T17:19:51.750Z,20.60
2023-11-30T17:20:55.451Z,21.33
2023-11-30T17:21:57.649Z,20.60
2023-11-30T17:23:00.752Z,20.77
2023-11-30T17:24:04.134Z,19.33
2023-11-30T17:25:08.095Z,22.10
2023-11-30T17:26:10.173Z,24.75
2023-11-30T17:27:13.986Z,27.38
2023-11-30T17:28:16.114Z,19.80
2023-11-30T17:29:19.312Z,21.27
2023-11-30T17:30:23.054Z,28.17
2023-11-30T17:31:26.254Z,18.83
2023-11-30T17:32:28.548Z,19.00
2023-11-30T17:33:31.813Z,19.42
2023-11-30T17:34:34.364Z,23.15
2023-11-30T17:35:37.598Z,21.52
2023-11-30T17:36:39.929Z,20.25
2023-11-30T17:37:43.348Z,19.17
2023-11-30T17:38:45.454Z,19.42
2023-11-30T17:39:48.912Z,22.20
2023-11-30T17:40:50.969Z,21.08
2023-11-30T17:41:54.247Z,24.85
2023-11-30T17:42:56.461Z,21.38
2023-11-30T17:43:59.591Z,25.10
2023-11-30T17:45:01.764Z,21.05
2023-11-30T17:46:09.237Z,19.67
2023-11-30T17:47:11.496Z,20.83
2023-11-30T17:48:14.714Z,18.48
2023-11-30T17:49:21.220Z,23.40
2023-11-30T17:50:25.472Z,24.67
2023-11-30T17:51:27.825Z,21.25
2023-11-30T17:52:31.176Z,23.30
2023-11-30T17:53:33.353Z,23.00
2023-11-30T17:54:36.946Z,24.40
2023-11-30T17:55:39.249Z,26.10
2023-11-30T17:56:42.442Z,25.50
2023-11-30T17:57:44.948Z,25.52
2023-11-30T17:58:48.542Z,25.17
2023-11-30T17:59:50.838Z,25.23
2023-11-30T18:00:56.118Z,39.22
2023-11-30T18:01:59.989Z,44.50
2023-11-30T18:03:02.313Z,29.70
2023-11-30T18:04:05.824Z,36.15
2023-11-30T18:05:09.615Z,32.80
2023-11-30T18:06:13.159Z,35.67
2023-11-30T18:07:15.464Z,40.20
2023-11-30T18:08:17.729Z,35.65
2023-11-30T18:09:21.119Z,34.92
2023-11-30T18:10:23.303Z,34.15
2023-11-30T18:11:26.657Z,35.25
2023-11-30T18:12:28.912Z,35.03
2023-11-30T18:13:32.325Z,36.00
2023-11-30T18:14:34.560Z,35.78
2023-11-30T18:15:40.081Z,34.53
2023-11-30T18:16:42.335Z,33.65
2023-11-30T18:17:47.167Z,33.75
2023-11-30T18:18:49.650Z,33.45
2023-11-30T18:19:52.888Z,34.25
2023-11-30T18:20:55.128Z,36.22
2023-11-30T18:21:58.790Z,36.83
2023-11-30T18:23:00.937Z,36.90
2023-11-30T18:24:04.384Z,40.78
2023-11-30T18:25:07.258Z,37.17
2023-11-30T18:26:10.378Z,42.15
2023-11-30T18:27:12.644Z,45.42
2023-11-30T18:28:15.795Z,44.75
2023-11-30T18:29:17.888Z,45.75
2023-11-30T18:30:21.068Z,42.03
2023-11-30T18:31:24.197Z,45.58
2023-11-30T18:32:27.543Z,44.45
2023-11-30T21:13:00.369Z,76.35
2023-11-30T21:14:02.675Z,78.82
2023-11-30T21:15:06.646Z,72.22
2023-11-30T21:16:09.459Z,77.20
2023-11-30T21:17:12.649Z,92.00
2023-11-30T21:18:14.846Z,84.10
2023-11-30T21:19:18.512Z,77.07
2023-11-30T21:20:22.148Z,68.72
2023-11-30T21:21:25.357Z,66.07
2023-11-30T21:22:27.667Z,61.90
2023-11-30T21:23:31.054Z,66.68
2023-11-30T21:24:35.377Z,65.75
2023-11-30T21:25:38.547Z,70.43
2023-11-30T21:26:40.698Z,67.63
2023-11-30T21:27:43.898Z,70.38
2023-11-30T21:28:47.515Z,69.65
2023-11-30T21:29:55.233Z,76.13
2023-11-30T21:30:57.445Z,79.82
2023-11-30T21:32:00.765Z,91.20
2023-11-30T21:33:02.985Z,84.47
2023-11-30T21:34:06.400Z,84.20
2023-11-30T21:35:09.324Z,83.63
2023-11-30T21:36:14.537Z,80.55
2023-11-30T21:37:16.715Z,79.05
2023-11-30T21:38:19.926Z,78.47
2023-11-30T21:39:22.232Z,80.78
2023-11-30T21:40:25.707Z,78.50
2023-11-30T21:41:27.960Z,61.03
2023-11-30T21:42:31.179Z,54.60
2023-11-30T21:43:33.351Z,51.28
2023-11-30T21:44:40.256Z,53.47
2023-11-30T21:45:44.014Z,51.72
2023-11-30T21:46:47.208Z,64.95
2023-11-30T21:47:49.456Z,55.63
2023-11-30T21:48:53.165Z,51.55
2023-11-30T21:49:55.523Z,51.05
2023-11-30T21:50:58.670Z,52.53
2023-11-30T21:52:01.304Z,52.28
2023-11-30T21:53:05.016Z,51.38
2023-11-30T21:54:07.614Z,48.40
2023-11-30T21:55:10.951Z,49.85
2023-11-30T21:56:13.083Z,49.65
2023-11-30T21:57:16.315Z,48.05
2023-11-30T21:58:19.696Z,51.78
2023-11-30T21:59:21.832Z,50.00
2023-11-30T22:00:26.632Z,49.85
2023-11-30T22:01:29.083Z,49.13
2023-11-30T22:02:32.410Z,48.42
2023-11-30T22:03:34.636Z,49.40
2023-11-30T22:04:38.040Z,47.17
2023-11-30T22:05:40.478Z,50.40
2023-11-30T22:06:43.767Z,47.25
2023-11-30T22:07:47.677Z,49.65
2023-11-30T22:08:52.042Z,48.90
2023-11-30T22:09:55.233Z,49.80
2023-11-30T22:10:57.781Z,48.13
2023-11-30T22:12:04.329Z,58.15
2023-11-30T22:13:06.531Z,48.28
2023-11-30T22:14:09.683Z,47.25
2023-11-30T22:15:11.796Z,49.00
2023-11-30T22:16:23.627Z,47.92
2023-11-30T22:17:31.617Z,45.30
2023-11-30T22:18:34.860Z,47.25
2023-11-30T22:19:37.068Z,47.47
2023-11-30T22:20:45.320Z,48.38
2023-11-30T22:21:47.489Z,48.83
2023-11-30T22:22:50.593Z,49.35
2023-11-30T22:23:52.833Z,50.45
2023-11-30T22:24:55.991Z,49.28
2023-11-30T22:26:03.969Z,48.97
2023-11-30T22:27:08.138Z,45.63
2023-11-30T22:28:10.393Z,45.83
2023-11-30T22:29:13.552Z,56.15
2023-11-30T22:30:16.002Z,58.85
2023-11-30T22:31:20.760Z,46.17
2023-11-30T22:32:22.898Z,50.42
2023-11-30T22:33:26.282Z,47.40
2023-11-30T22:34:28.565Z,48.00
2023-11-30T22:35:30.786Z,48.08
2023-11-30T22:36:34.090Z,51.42
2023-11-30T22:37:36.348Z,53.72
2023-11-30T22:38:45.386Z,53.35
2023-11-30T22:39:48.485Z,51.22
2023-11-30T22:40:51.971Z,53.92
2023-11-30T22:41:55.356Z,53.28
2023-11-30T22:42:58.604Z,52.13
2023-11-30T22:44:00.801Z,53.47
2023-11-30T22:45:04.442Z,56.22
2023-11-30T22:46:06.837Z,60.40
2023-11-30T22:47:11.389Z,62.15
2023-11-30T22:48:13.600Z,76.22
2023-11-30T22:49:17.452Z,75.00
2023-11-30T22:50:19.802Z,60.42
2023-11-30T22:51:23.704Z,59.28
2023-11-30T22:52:27.033Z,72.35
2023-11-30T22:53:29.249Z,67.50
2023-11-30T22:54:33.016Z,64.65
2023-11-30T22:55:35.438Z,57.25
2023-11-30T22:56:38.618Z,51.15
2023-11-30T22:57:40.806Z,46.47
2023-11-30T22:58:43.144Z,49.40
2023-11-30T22:59:46.508Z,50.30
2023-11-30T23:00:49.030Z,52.20
2023-11-30T23:01:52.380Z,53.38
2023-11-30T23:02:56.203Z,52.90
2023-11-30T23:04:00.088Z,49.50
2023-11-30T23:05:04.326Z,49.67
2023-11-30T23:06:08.056Z,58.75
2023-11-30T23:07:10.365Z,61.00
2023-11-30T23:08:13.593Z,49.95
2023-11-30T23:09:15.846Z,51.00
2023-11-30T23:10:20.687Z,50.20
2023-11-30T23:11:22.856Z,52.30
2023-11-30T23:12:26.026Z,50.08
2023-11-30T23:13:28.692Z,50.00
2023-11-30T23:14:31.900Z,52.47
2023-11-30T23:15:34.086Z,54.50
2023-11-30T23:16:38.140Z,64.88
2023-11-30T23:17:40.413Z,64.30
2023-11-30T23:18:44.022Z,52.67
2023-11-30T23:19:47.240Z,53.00
2023-11-30T23:20:49.642Z,55.92
2023-11-30T23:21:52.841Z,55.60
2023-11-30T23:22:54.978Z,69.60
2023-11-30T23:23:58.200Z,70.93
2023-11-30T23:25:00.476Z,69.82
2023-11-30T23:26:03.659Z,56.92
2023-11-30T23:27:06.014Z,57.33
2023-11-30T23:28:09.221Z,54.60
2023-11-30T23:29:11.343Z,58.97
2023-11-30T23:30:14.895Z,56.60
2023-11-30T23:31:17.296Z,52.75
2023-11-30T23:32:20.494Z,66.97
2023-11-30T23:33:22.628Z,65.15
2023-11-30T23:34:27.115Z,65.47
2023-11-30T23:35:29.655Z,56.60
2023-11-30T23:36:33.194Z,55.63
2023-11-30T23:37:35.421Z,69.75
2023-11-30T23:38:38.734Z,57.45
2023-11-30T23:39:40.889Z,54.83
2023-11-30T23:40:44.068Z,59.47
2023-11-30T23:41:46.251Z,55.83
2023-11-30T23:42:49.424Z,58.25
2023-11-30T23:43:51.572Z,57.25
2023-11-30T23:44:54.729Z,56.22
2023-11-30T23:45:57.044Z,67.00
2023-11-30T23:46:59.257Z,70.07
2023-11-30T23:48:02.514Z,74.07
2023-11-30T23:49:04.789Z,64.43
2023-11-30T23:50:10.396Z,63.28
2023-11-30T23:51:12.609Z,79.22
2023-11-30T23:52:16.385Z,79.43
2023-11-30T23:53:19.969Z,59.03
2023-11-30T23:54:23.141Z,62.17
2023-11-30T23:55:25.353Z,64.40
2023-11-30T23:56:28.551Z,65.72
2023-11-30T23:57:31.655Z,76.68
2023-11-30T23:58:35.038Z,60.25
2023-11-30T23:59:37.368Z,61.95
